Time;durP1;ratioP1;P1;durP2;ratioP2;P2;SDS_P1;SDS_P2;PMS_P1;PMS_P2;Temp;Humidity;BMP_temperature;BMP_pressure;BME280_temperature;BME280_humidity;BME280_pressure;Samples;Min_cycle;Max_cycle;Signal;HPM_P1;HPM_P2
2023/09/12 00:02:17;;;;;;;4.73;3.27;;;31.90;49.40;;;;;;5080101;27;88488;-60
2023/09/12 00:04:45;;;;;;;5.20;3.67;;;31.90;49.40;;;;;;5080662;27;89055;-61
2023/09/12 00:07:14;;;;;;;6.93;3.30;;;31.90;49.40;;;;;;5066971;27;87674;-60
2023/09/12 00:09:42;;;;;;;5.27;3.20;;;31.90;49.40;;;;;;5073856;27;87582;-60
2023/09/12 00:12:10;;;;;;;4.47;3.37;;;31.90;49.40;;;;;;5081265;27;88563;-61
2023/09/12 00:14:38;;;;;;;4.83;2.93;;;31.90;50.00;;;;;;5079623;27;89210;-61
2023/09/12 00:17:06;;;;;;;3.37;3.07;;;31.90;49.40;;;;;;5070743;27;88821;-60
2023/09/12 00:19:35;;;;;;;3.30;2.90;;;31.90;49.40;;;;;;5075425;27;87940;-60
2023/09/12 00:22:04;;;;;;;4.57;2.93;;;31.90;49.40;;;;;;5070712;27;89662;-60
2023/09/12 00:24:32;;;;;;;5.47;3.07;;;31.90;49.40;;;;;;5073124;27;89956;-60
2023/09/12 00:27:00;;;;;;;2.50;2.30;;;31.90;49.40;;;;;;5080030;27;90061;-60
2023/09/12 00:29:28;;;;;;;3.83;2.30;;;31.90;49.40;;;;;;5080710;27;87603;-61
2023/09/12 00:31:56;;;;;;;3.80;2.40;;;31.90;49.40;;;;;;5068770;27;89668;-60
2023/09/12 00:34:24;;;;;;;4.97;3.03;;;31.80;49.30;;;;;;5080996;27;89243;-60
2023/09/12 00:36:54;;;;;;;5.03;2.43;;;31.80;49.30;;;;;;5076442;27;88794;-61
2023/09/12 00:39:22;;;;;;;4.90;2.83;;;31.80;49.00;;;;;;5071746;27;88420;-61
2023/09/12 00:41:50;;;;;;;3.80;2.20;;;31.80;49.30;;;;;;5072411;27;89687;-61
2023/09/12 00:44:18;;;;;;;3.83;2.60;;;31.80;49.30;;;;;;5080263;27;89061;-61
2023/09/12 00:46:46;;;;;;;2.97;2.13;;;31.80;50.00;;;;;;5079193;27;88887;-60
2023/09/12 00:49:14;;;;;;;2.87;2.17;;;31.80;49.40;;;;;;5080629;27;88062;-61
2023/09/12 00:51:42;;;;;;;3.20;2.50;;;31.80;49.30;;;;;;5080961;27;89644;-60
2023/09/12 00:54:11;;;;;;;3.70;2.80;;;31.80;49.30;;;;;;5073171;27;89115;-61
2023/09/12 00:56:39;;;;;;;2.53;2.17;;;31.80;49.40;;;;;;5073920;27;88847;-61
2023/09/12 00:59:07;;;;;;;2.37;2.00;;;31.80;49.40;;;;;;5077661;27;87607;-60
2023/09/12 01:01:36;;;;;;;3.70;2.00;;;31.80;49.40;;;;;;5066242;27;89988;-60
2023/09/12 01:04:04;;;;;;;5.27;2.37;;;31.80;50.00;;;;;;5079914;27;89096;-60
2023/09/12 01:06:32;;;;;;;2.63;1.87;;;31.80;49.30;;;;;;5069503;27;88480;-60
2023/09/12 01:09:01;;;;;;;2.43;2.23;;;31.80;50.00;;;;;;5077851;27;87647;-60
2023/09/12 01:11:30;;;;;;;2.40;1.93;;;31.80;49.30;;;;;;5080711;27;89628;-60
2023/09/12 01:13:58;;;;;;;4.30;2.50;;;31.80;49.30;;;;;;5070965;27;89676;-60
2023/09/12 01:16:26;;;;;;;3.57;2.13;;;31.70;49.90;;;;;;5072392;27;89723;-60
2023/09/12 01:18:54;;;;;;;2.40;1.87;;;31.70;49.20;;;;;;5079397;27;89257;-60
2023/09/12 01:21:44;;;;;;;4.13;2.20;;;31.70;49.30;;;;;;5070007;27;89690;-60
2023/09/12 01:24:48;;;;;;;2.10;1.90;;;31.70;49.30;;;;;;5080661;27;89232;-60
2023/09/12 01:27:22;;;;;;;2.73;1.67;;;31.70;49.30;;;;;;5034245;27;88759;-60
2023/09/12 01:29:52;;;;;;;3.07;2.40;;;31.70;49.30;;;;;;5070752;27;87530;-60
2023/09/12 01:32:20;;;;;;;2.07;1.87;;;31.70;49.30;;;;;;5074725;27;89601;-60
2023/09/12 01:34:48;;;;;;;3.40;1.87;;;31.70;49.20;;;;;;5079160;27;89105;-60
2023/09/12 01:37:16;;;;;;;2.33;1.73;;;31.70;49.20;;;;;;5080325;27;88832;-60
2023/09/12 01:39:44;;;;;;;4.33;1.90;;;31.70;49.20;;;;;;5077332;27;88051;-60
2023/09/12 01:42:14;;;;;;;3.10;1.63;;;31.70;49.20;;;;;;5080234;27;89610;-60
2023/09/12 01:44:44;;;;;;;2.53;1.60;;;31.70;49.20;;;;;;5079955;27;88168;-60
2023/09/12 01:47:12;;;;;;;2.50;1.80;;;31.70;49.20;;;;;;5079668;27;88789;-60
2023/09/12 01:49:41;;;;;;;2.00;1.57;;;31.70;49.20;;;;;;5080579;27;87424;-60
2023/09/12 01:52:09;;;;;;;7.37;1.50;;;31.70;49.20;;;;;;5079792;27;88661;-60
2023/09/12 01:54:37;;;;;;;2.03;1.40;;;31.60;49.10;;;;;;5079115;27;89071;-60
2023/09/12 01:57:05;;;;;;;5.30;2.13;;;31.70;49.20;;;;;;5077916;27;88534;-60
2023/09/12 01:59:33;;;;;;;1.90;1.70;;;31.60;49.10;;;;;;5079906;27;87513;-60
2023/09/12 02:02:03;;;;;;;1.57;1.47;;;31.70;49.20;;;;;;5081491;27;89569;-60
2023/09/12 02:04:31;;;;;;;2.30;1.70;;;31.60;49.10;;;;;;5082847;27;90069;-60
2023/09/12 02:06:59;;;;;;;1.40;1.17;;;31.60;49.10;;;;;;5083751;27;89734;-60
2023/09/12 02:09:27;;;;;;;1.90;1.63;;;31.60;49.10;;;;;;5083101;27;87680;-60
2023/09/12 02:11:55;;;;;;;2.90;1.70;;;31.60;49.10;;;;;;5083702;27;88745;-60
2023/09/12 02:14:23;;;;;;;2.40;1.97;;;31.60;49.10;;;;;;5083783;27;89300;-61
2023/09/12 02:16:51;;;;;;;2.83;1.63;;;31.60;49.10;;;;;;5083335;27;87925;-60
2023/09/12 02:19:20;;;;;;;2.27;1.60;;;31.60;49.10;;;;;;5076410;27;88551;-60
2023/09/12 02:21:48;;;;;;;3.20;1.57;;;31.60;49.10;;;;;;5073854;27;89739;-60
2023/09/12 02:24:17;;;;;;;7.20;1.73;;;31.60;49.10;;;;;;5082837;27;89102;-60
2023/09/12 02:26:45;;;;;;;3.57;1.40;;;31.60;49.10;;;;;;5083533;27;88847;-60
2023/09/12 02:29:13;;;;;;;2.43;1.70;;;31.60;49.10;;;;;;5083192;27;88062;-60
2023/09/12 02:31:42;;;;;;;4.83;1.83;;;31.60;49.10;;;;;;5083039;27;89544;-60
2023/09/12 02:34:10;;;;;;;1.97;1.33;;;31.60;49.10;;;;;;5076596;27;89246;-60
2023/09/12 02:36:39;;;;;;;1.70;1.40;;;31.60;49.10;;;;;;5076730;27;88890;-60
2023/09/12 02:39:07;;;;;;;2.90;1.83;;;31.50;49.10;;;;;;5083198;27;87393;-60
2023/09/12 02:41:35;;;;;;;1.50;1.30;;;31.50;49.10;;;;;;5083029;27;89439;-60
2023/09/12 02:44:03;;;;;;;3.13;1.40;;;31.50;49.10;;;;;;5082429;27;89120;-60
2023/09/12 02:46:32;;;;;;;2.30;1.73;;;31.50;49.10;;;;;;5082770;27;88896;-60
2023/09/12 02:49:00;;;;;;;2.97;1.70;;;31.50;49.10;;;;;;5082233;27;87675;-60
2023/09/12 02:51:28;;;;;;;3.97;2.23;;;31.50;49.10;;;;;;5082809;27;89662;-60
2023/09/12 02:53:58;;;;;;;2.30;1.70;;;31.50;49.10;;;;;;5081521;27;89438;-60
2023/09/12 02:56:26;;;;;;;3.07;1.83;;;31.50;49.10;;;;;;5074611;27;89650;-60
2023/09/12 02:58:54;;;;;;;3.57;1.77;;;31.50;49.20;;;;;;5079441;27;87672;-60
2023/09/12 03:01:22;;;;;;;2.80;1.70;;;31.50;49.10;;;;;;5080085;27;89585;-60
2023/09/12 03:03:50;;;;;;;1.67;1.57;;;31.50;49.20;;;;;;5079476;27;88058;-60
2023/09/12 03:06:19;;;;;;;1.97;1.57;;;31.50;49.10;;;;;;5079932;27;88813;-60
2023/09/12 03:08:47;;;;;;;3.33;1.67;;;31.40;49.00;;;;;;5080118;27;87334;-60
2023/09/12 03:11:16;;;;;;;2.03;1.53;;;31.40;49.10;;;;;;5079772;27;89687;-60
2023/09/12 03:13:44;;;;;;;5.13;2.10;;;31.50;49.10;;;;;;5079445;27;89152;-60
2023/09/12 03:16:12;;;;;;;3.00;1.90;;;31.40;49.00;;;;;;5079535;27;88495;-60
2023/09/12 03:18:40;;;;;;;5.70;2.13;;;31.40;49.00;;;;;;5078459;27;88045;-60
2023/09/12 03:21:09;;;;;;;4.10;2.40;;;31.40;49.00;;;;;;5079350;27;89635;-60
2023/09/12 03:23:37;;;;;;;3.43;2.23;;;31.40;49.00;;;;;;5079552;27;89327;-60
2023/09/12 03:26:05;;;;;;;1.90;1.70;;;31.40;49.00;;;;;;5078863;27;88874;-60
2023/09/12 03:28:35;;;;;;;3.53;2.13;;;31.40;49.00;;;;;;5069174;27;87997;-60
2023/09/12 03:31:07;;;;;;;2.67;1.77;;;31.40;49.10;;;;;;5076370;27;89709;-60
2023/09/12 03:33:36;;;;;;;4.17;1.97;;;31.40;49.00;;;;;;5078904;27;89291;-60
2023/09/12 03:36:05;;;;;;;5.73;2.53;;;31.50;49.20;;;;;;5078891;27;88864;-60
2023/09/12 03:38:34;;;;;;;2.50;1.83;;;31.40;49.00;;;;;;5078260;27;87946;-60
2023/09/12 03:41:02;;;;;;;3.67;2.00;;;31.40;49.10;;;;;;5079411;27;89665;-60
2023/09/12 03:43:30;;;;;;;5.57;2.47;;;31.40;49.10;;;;;;5078953;27;90146;-60
2023/09/12 03:45:59;;;;;;;3.03;1.83;;;31.40;49.10;;;;;;5078621;27;89750;-60
2023/09/12 03:48:30;;;;;;;2.37;1.77;;;31.40;49.10;;;;;;5079547;27;88186;-60
2023/09/12 03:50:58;;;;;;;2.63;1.90;;;31.40;49.10;;;;;;5078067;27;89710;-60
2023/09/12 03:53:27;;;;;;;4.63;2.70;;;31.40;49.10;;;;;;5079362;27;89223;-60
2023/09/12 03:55:55;;;;;;;5.53;2.93;;;31.40;49.10;;;;;;5079127;27;88751;-60
2023/09/12 03:58:24;;;;;;;3.17;2.03;;;31.40;49.10;;;;;;5075834;27;87669;-60
2023/09/12 04:00:52;;;;;;;3.07;2.43;;;31.40;49.10;;;;;;5079413;27;89643;-60
2023/09/12 04:03:22;;;;;;;4.93;2.27;;;31.40;49.10;;;;;;5078536;27;88288;-60
2023/09/12 04:05:51;;;;;;;3.73;2.27;;;31.40;49.10;;;;;;5074816;27;87983;-60
2023/09/12 04:08:18;;;;;;;2.53;2.07;;;31.40;49.10;;;;;;5069815;27;88257;-60
2023/09/12 04:10:47;;;;;;;2.87;2.07;;;31.40;49.20;;;;;;5077979;27;89661;-60
2023/09/12 04:13:15;;;;;;;4.53;2.20;;;31.40;49.10;;;;;;5078609;27;89019;-60
2023/09/12 04:15:43;;;;;;;3.27;2.50;;;31.30;49.10;;;;;;5075407;27;89327;-60
2023/09/12 04:18:11;;;;;;;4.50;2.83;;;31.30;49.10;;;;;;5078798;27;88364;-60
2023/09/12 04:20:40;;;;;;;3.07;1.90;;;31.30;49.10;;;;;;5076208;27;88869;-60
2023/09/12 04:23:08;;;;;;;3.17;2.13;;;31.40;49.20;;;;;;5069930;27;89041;-60
2023/09/12 04:25:36;;;;;;;3.90;2.43;;;31.30;49.20;;;;;;5081307;27;88897;-60
2023/09/12 04:28:05;;;;;;;3.00;2.33;;;31.30;49.20;;;;;;5080981;27;87546;-60
2023/09/12 04:30:35;;;;;;;3.70;2.10;;;31.30;49.20;;;;;;5077288;27;89564;-60
2023/09/12 04:33:03;;;;;;;3.03;2.17;;;31.30;49.20;;;;;;5069015;27;90054;-60
2023/09/12 04:35:34;;;;;;;3.20;1.93;;;31.20;49.20;;;;;;5079205;27;89813;-60
2023/09/12 04:38:04;;;;;;;3.53;2.03;;;31.20;49.20;;;;;;5080570;27;87490;-60
2023/09/12 04:40:32;;;;;;;2.90;1.30;;;31.40;49.30;;;;;;5078998;27;89624;-60
2023/09/12 04:43:00;;;;;;;2.40;1.93;;;31.30;49.30;;;;;;5079109;27;89155;-60
2023/09/12 04:45:28;;;;;;;3.23;2.40;;;31.20;49.20;;;;;;5078249;27;89195;-60
2023/09/12 04:47:56;;;;;;;3.27;2.00;;;31.20;49.90;;;;;;5079941;27;87570;-60
2023/09/12 04:50:24;;;;;;;3.70;2.07;;;31.20;49.30;;;;;;5078419;27;89964;-60
2023/09/12 04:52:52;;;;;;;3.27;2.07;;;31.20;49.20;;;;;;5079645;27;89250;-60
2023/09/12 04:55:21;;;;;;;3.43;2.10;;;31.20;49.20;;;;;;5063032;27;88895;-60
2023/09/12 04:57:49;;;;;;;4.80;2.00;;;31.20;49.20;;;;;;5079566;27;88004;-60
2023/09/12 05:00:17;;;;;;;5.30;2.60;;;31.20;49.20;;;;;;5079878;27;89535;-60
2023/09/12 05:02:46;;;;;;;3.63;2.40;;;31.20;49.30;;;;;;5079151;27;89323;-60
2023/09/12 05:05:14;;;;;;;5.17;2.10;;;31.20;49.30;;;;;;5075881;27;88876;-60
2023/09/12 05:07:42;;;;;;;5.73;2.50;;;31.20;49.30;;;;;;5073034;27;87650;-60
2023/09/12 05:10:10;;;;;;;5.43;1.90;;;31.20;49.30;;;;;;5072014;27;89715;-64
2023/09/12 05:12:39;;;;;;;2.13;1.93;;;31.20;49.20;;;;;;5073940;27;88000;-56
2023/09/12 05:15:08;;;;;;;2.83;1.87;;;31.20;49.30;;;;;;5068456;27;88947;-54
2023/09/12 05:17:36;;;;;;;2.80;1.87;;;31.20;49.30;;;;;;5070718;27;89585;-54
2023/09/12 05:20:05;;;;;;;4.20;2.03;;;31.20;49.30;;;;;;5067555;27;89624;-55
2023/09/12 05:22:35;;;;;;;4.63;1.87;;;31.20;49.40;;;;;;5058402;27;90892;-56
2023/09/12 05:25:03;;;;;;;2.83;2.37;;;31.20;49.40;;;;;;5075307;27;89678;-55
2023/09/12 05:27:31;;;;;;;2.10;1.90;;;31.30;49.40;;;;;;5079589;27;87482;-54
2023/09/12 05:30:00;;;;;;;3.67;2.07;;;31.20;49.40;;;;;;5079790;27;88466;-55
2023/09/12 05:32:28;;;;;;;2.27;1.60;;;31.20;49.40;;;;;;5028679;27;1180883;-55
2023/09/12 05:34:56;;;;;;;3.13;2.13;;;31.30;49.40;;;;;;5065119;27;88896;-55
2023/09/12 05:37:44;;;;;;;2.47;2.00;;;31.30;49.50;;;;;;5070333;27;87495;-55
2023/09/12 05:40:12;;;;;;;2.13;1.93;;;31.20;49.50;;;;;;5073717;27;89630;-55
2023/09/12 05:42:40;;;;;;;4.50;2.57;;;31.20;49.50;;;;;;5070033;27;89189;-56
2023/09/12 05:45:10;;;;;;;2.70;1.70;;;31.30;49.60;;;;;;5071066;27;87713;-56
2023/09/12 05:47:38;;;;;;;3.47;2.37;;;31.30;49.60;;;;;;5070672;27;87738;-57
2023/09/12 05:50:07;;;;;;;3.87;1.97;;;31.20;50.20;;;;;;5069911;27;88573;-55
2023/09/12 05:52:35;;;;;;;3.03;2.60;;;31.30;49.60;;;;;;5070785;27;89076;-56
2023/09/12 05:55:04;;;;;;;4.07;2.70;;;31.20;49.60;;;;;;5073095;27;88881;-55
2023/09/12 05:57:33;;;;;;;4.80;2.67;;;31.30;49.70;;;;;;5072395;27;87538;-56
2023/09/12 06:00:04;;;;;;;3.63;2.60;;;31.30;50.40;;;;;;5068986;27;89681;-55
2023/09/12 06:02:34;;;;;;;4.63;2.83;;;31.20;49.70;;;;;;5071721;27;89196;-56
2023/09/12 06:05:02;;;;;;;4.50;2.57;;;31.20;49.80;;;;;;5072140;27;88807;-56
2023/09/12 06:07:32;;;;;;;4.70;2.93;;;31.20;49.80;;;;;;5074509;27;88925;-56
2023/09/12 06:10:00;;;;;;;6.33;2.80;;;31.20;49.80;;;;;;5072996;27;89649;-55
2023/09/12 06:12:28;;;;;;;4.20;2.77;;;31.20;49.90;;;;;;5074192;27;90236;-55
2023/09/12 06:14:56;;;;;;;4.47;3.00;;;31.20;50.00;;;;;;5070751;27;89818;-55
2023/09/12 06:17:24;;;;;;;6.30;2.47;;;31.20;50.10;;;;;;5075869;27;87605;-56
2023/09/12 06:19:55;;;;;;;5.17;3.40;;;31.20;50.10;;;;;;5078909;27;88359;-55
2023/09/12 06:22:23;;;;;;;4.37;2.97;;;31.20;50.20;;;;;;5071409;27;89494;-56
2023/09/12 06:24:51;;;;;;;6.43;3.37;;;31.20;50.20;;;;;;5078456;27;89095;-55
2023/09/12 06:27:20;;;;;;;4.90;3.00;;;31.20;50.20;;;;;;5079997;27;87304;-56
2023/09/12 06:29:48;;;;;;;5.80;3.60;;;31.20;50.20;;;;;;5079469;27;89769;-55
2023/09/12 06:32:16;;;;;;;8.97;3.37;;;31.20;50.30;;;;;;5078505;27;88966;-55
2023/09/12 06:34:44;;;;;;;5.73;3.27;;;31.10;50.20;;;;;;5079301;27;88784;-55
2023/09/12 06:37:14;;;;;;;5.03;3.30;;;31.20;50.30;;;;;;5080290;27;87723;-55
2023/09/12 06:39:42;;;;;;;4.70;3.23;;;31.20;50.30;;;;;;5078472;27;89555;-54
2023/09/12 06:42:10;;;;;;;6.80;3.57;;;31.20;50.30;;;;;;5079295;27;89303;-56
2023/09/12 06:44:39;;;;;;;5.87;4.27;;;31.20;50.30;;;;;;5078902;27;88860;-57
2023/09/12 06:47:07;;;;;;;7.13;3.97;;;31.20;50.40;;;;;;5078540;27;87599;-54
2023/09/12 06:49:36;;;;;;;5.43;3.37;;;31.20;50.40;;;;;;5078473;27;89474;-55
2023/09/12 06:52:05;;;;;;;7.40;3.63;;;31.20;50.50;;;;;;5077199;27;89146;-56
2023/09/12 06:54:35;;;;;;;5.07;3.53;;;31.20;50.50;;;;;;5074113;27;88941;-56
2023/09/12 06:57:04;;;;;;;5.47;3.20;;;31.20;50.60;;;;;;5076436;27;87841;-55
2023/09/12 06:59:32;;;;;;;6.60;4.27;;;31.20;50.60;;;;;;5080370;27;89540;-55
2023/09/12 07:02:00;;;;;;;4.90;3.63;;;31.20;50.60;;;;;;5082483;27;90143;-56
2023/09/12 07:04:29;;;;;;;6.93;3.90;;;31.20;50.60;;;;;;5083046;27;90033;-56
2023/09/12 07:06:57;;;;;;;6.37;4.20;;;31.20;50.60;;;;;;5073623;27;88217;-58
2023/09/12 07:09:25;;;;;;;5.73;4.07;;;31.20;50.60;;;;;;5082118;27;89765;-57
2023/09/12 07:11:55;;;;;;;6.73;3.83;;;31.10;50.50;;;;;;5080142;27;89023;-57
2023/09/12 07:14:25;;;;;;;6.73;3.30;;;31.10;50.50;;;;;;5082161;27;88803;-56
2023/09/12 07:16:53;;;;;;;4.60;3.40;;;31.10;50.50;;;;;;5080177;27;87933;-57
2023/09/12 07:19:22;;;;;;;3.63;3.20;;;31.20;50.60;;;;;;5082488;27;89874;-56
2023/09/12 07:21:50;;;;;;;6.37;3.80;;;31.10;50.50;;;;;;5082940;27;87650;-57
2023/09/12 07:24:18;;;;;;;6.03;4.07;;;31.20;50.50;;;;;;5082808;27;88830;-57
2023/09/12 07:26:47;;;;;;;4.43;3.40;;;31.20;50.50;;;;;;5082312;27;88052;-56
2023/09/12 07:29:17;;;;;;;5.80;3.57;;;31.20;50.50;;;;;;5080093;27;89588;-57
2023/09/12 07:31:45;;;;;;;7.60;4.27;;;31.20;50.50;;;;;;5081910;27;89092;-57
2023/09/12 07:34:14;;;;;;;4.90;4.10;;;31.20;50.50;;;;;;5078386;27;87890;-57
2023/09/12 07:36:42;;;;;;;5.93;3.90;;;31.20;50.50;;;;;;5082595;27;87672;-57
2023/09/12 07:39:11;;;;;;;6.10;3.50;;;31.20;51.20;;;;;;5076294;27;88599;-57
2023/09/12 07:41:39;;;;;;;7.20;4.83;;;31.20;50.50;;;;;;5081365;27;89064;-57
2023/09/12 07:44:10;;;;;;;6.07;4.17;;;31.20;50.50;;;;;;5078094;27;89309;-57
2023/09/12 07:46:40;;;;;;;6.50;4.87;;;31.20;50.40;;;;;;5081563;27;87514;-57
2023/09/12 07:49:09;;;;;;;8.20;4.37;;;31.20;50.40;;;;;;5080881;27;89614;-57
2023/09/12 07:51:37;;;;;;;5.80;4.40;;;31.20;50.30;;;;;;5081392;27;88705;-57
2023/09/12 07:54:05;;;;;;;5.87;4.43;;;31.30;50.40;;;;;;5081088;27;89739;-57
2023/09/12 07:56:33;;;;;;;6.17;4.20;;;31.30;51.00;;;;;;5081885;27;87594;-58
2023/09/12 07:59:02;;;;;;;5.40;4.43;;;31.30;50.30;;;;;;5071398;27;88302;-57
2023/09/12 08:01:30;;;;;;;7.13;4.40;;;31.30;50.30;;;;;;5072456;27;88983;-57
2023/09/12 08:03:59;;;;;;;7.17;4.90;;;31.30;50.30;;;;;;5074639;27;88901;-57
2023/09/12 08:06:28;;;;;;;6.47;4.77;;;31.30;50.20;;;;;;5082724;27;87647;-57
2023/09/12 08:08:59;;;;;;;9.03;4.90;;;31.30;50.20;;;;;;5082325;27;88179;-57
2023/09/12 08:11:28;;;;;;;6.67;4.77;;;31.30;50.20;;;;;;5078909;27;89150;-57
2023/09/12 08:13:56;;;;;;;9.37;4.80;;;31.30;50.20;;;;;;5081153;27;88953;-57
2023/09/12 08:16:25;;;;;;;6.50;4.67;;;31.30;50.20;;;;;;5078450;27;87898;-57
2023/09/12 08:18:53;;;;;;;8.50;5.07;;;31.30;50.20;;;;;;5070244;27;89784;-57
2023/09/12 08:21:23;;;;;;;5.23;4.23;;;31.30;50.20;;;;;;5078843;27;89126;-57
2023/09/12 08:23:51;;;;;;;9.67;5.03;;;31.30;50.20;;;;;;5080679;27;89022;-57
2023/09/12 08:26:20;;;;;;;4.90;4.33;;;31.30;50.20;;;;;;5076179;27;87621;-57
2023/09/12 08:28:48;;;;;;;6.73;4.60;;;31.30;50.20;;;;;;5080970;27;89731;-57
2023/09/12 08:31:16;;;;;;;7.80;5.27;;;31.30;50.20;;;;;;5080700;27;89368;-57
2023/09/12 08:33:44;;;;;;;6.97;4.97;;;31.30;50.20;;;;;;5075573;27;88838;-57
2023/09/12 08:36:13;;;;;;;10.10;5.20;;;31.30;50.20;;;;;;5080385;27;87618;-57
2023/09/12 08:38:43;;;;;;;9.40;5.60;;;31.30;50.20;;;;;;5081174;27;88354;-57
2023/09/12 08:41:11;;;;;;;10.50;5.03;;;31.20;50.20;;;;;;5064598;27;88778;-57
2023/09/12 08:43:39;;;;;;;6.73;5.40;;;31.20;50.10;;;;;;5081069;27;89807;-57
2023/09/12 08:46:08;;;;;;;6.80;4.60;;;31.30;50.20;;;;;;5081954;27;87488;-57
2023/09/12 08:48:37;;;;;;;7.13;5.43;;;31.30;50.20;;;;;;5080980;27;89848;-57
2023/09/12 08:51:07;;;;;;;6.43;4.70;;;31.30;50.20;;;;;;5081172;27;89221;-57
2023/09/12 08:53:35;;;;;;;7.73;4.93;;;31.30;50.20;;;;;;5081615;27;88675;-57
2023/09/12 08:56:05;;;;;;;8.63;5.57;;;31.30;50.20;;;;;;5081629;27;87360;-57
2023/09/12 08:58:33;;;;;;;8.60;5.60;;;31.30;50.10;;;;;;5081432;27;89643;-57
2023/09/12 09:01:03;;;;;;;5.67;4.23;;;31.30;50.10;;;;;;5081229;27;89057;-57
2023/09/12 09:03:31;;;;;;;7.97;5.17;;;31.30;50.10;;;;;;5080869;27;87804;-57
2023/09/12 09:06:01;;;;;;;6.87;4.90;;;31.20;50.10;;;;;;5081720;27;87987;-57
2023/09/12 09:08:29;;;;;;;7.20;4.87;;;31.30;50.10;;;;;;5081622;27;89709;-57
2023/09/12 09:10:58;;;;;;;8.63;5.30;;;31.20;50.10;;;;;;5080837;27;89090;-57
2023/09/12 09:13:28;;;;;;;9.17;5.20;;;31.20;50.10;;;;;;5081700;27;88765;-57
2023/09/12 09:16:12;;;;;;;8.00;4.97;;;31.20;50.10;;;;;;5077443;27;87618;-57
2023/09/12 09:18:53;;;;;;;7.00;4.73;;;31.30;50.20;;;;;;5077252;27;89732;-57
2023/09/12 09:21:24;;;;;;;4.50;3.90;;;31.20;50.10;;;;;;5080087;27;88105;-57
2023/09/12 09:23:52;;;;;;;6.30;4.33;;;31.20;50.10;;;;;;5080644;27;88937;-57
2023/09/12 09:26:20;;;;;;;5.77;4.60;;;31.20;50.10;;;;;;5081166;27;87369;-57
2023/09/12 09:29:04;;;;;;;7.03;4.70;;;31.30;50.80;;;;;;5080511;27;89635;-57
2023/09/12 09:31:34;;;;;;;9.97;5.07;;;31.20;50.10;;;;;;5059925;27;90053;-57
2023/09/12 09:34:03;;;;;;;6.30;3.93;;;31.30;50.10;;;;;;5060429;27;89900;-57
2023/09/12 09:36:33;;;;;;;5.47;4.47;;;31.30;50.10;;;;;;5060382;27;87342;-57
2023/09/12 09:39:03;;;;;;;4.97;4.37;;;31.30;50.10;;;;;;5060120;27;90480;-57
2023/09/12 09:41:32;;;;;;;4.67;4.17;;;31.30;50.00;;;;;;5078467;27;88866;-57
2023/09/12 09:44:00;;;;;;;5.13;4.00;;;31.30;50.70;;;;;;5080995;27;88864;-57
2023/09/12 09:46:30;;;;;;;4.73;4.03;;;31.30;50.00;;;;;;5080497;27;87495;-57
2023/09/12 09:48:59;;;;;;;5.67;4.03;;;31.30;50.00;;;;;;5080426;27;89527;-57
2023/09/12 09:51:27;;;;;;;6.70;4.33;;;31.30;50.00;;;;;;5080695;27;89128;-57
2023/09/12 09:53:58;;;;;;;4.57;4.00;;;31.30;50.00;;;;;;5080207;27;88664;-57
2023/09/12 09:56:26;;;;;;;7.37;5.33;;;31.30;49.90;;;;;;5079284;27;88030;-57
2023/09/12 09:58:55;;;;;;;6.10;4.10;;;31.30;50.00;;;;;;5077215;27;89691;-57
2023/09/12 10:01:24;;;;;;;6.47;4.13;;;31.30;50.00;;;;;;5069495;27;89059;-57
2023/09/12 10:03:54;;;;;;;5.17;4.30;;;31.30;50.00;;;;;;5070203;27;88768;-57
2023/09/12 10:06:22;;;;;;;4.10;3.70;;;31.40;50.00;;;;;;5062328;27;87621;-58
2023/09/12 10:08:51;;;;;;;4.63;4.07;;;31.40;50.60;;;;;;5075209;27;89718;-57
2023/09/12 10:11:20;;;;;;;4.90;3.70;;;31.40;50.00;;;;;;5079768;27;89147;-57
2023/09/12 10:13:50;;;;;;;7.70;4.90;;;31.40;50.00;;;;;;5080279;27;88784;-57
2023/09/12 10:16:18;;;;;;;7.80;4.37;;;31.40;49.90;;;;;;5080413;27;87534;-57
2023/09/12 10:18:50;;;;;;;7.20;4.67;;;31.40;49.90;;;;;;5080304;27;89736;-57
2023/09/12 10:21:23;;;;;;;5.37;4.03;;;31.40;49.90;;;;;;5079754;27;90034;-57
2023/09/12 10:23:52;;;;;;;7.37;4.37;;;31.40;49.90;;;;;;5082699;27;88282;-57
2023/09/12 10:26:20;;;;;;;4.77;4.00;;;31.40;49.90;;;;;;5084353;27;87292;-57
2023/09/12 10:28:49;;;;;;;5.40;3.70;;;31.40;49.80;;;;;;5083259;27;89743;-57
2023/09/12 10:31:17;;;;;;;5.53;4.50;;;31.40;49.80;;;;;;5083914;27;89276;-57
2023/09/12 10:33:45;;;;;;;7.87;5.03;;;31.40;49.80;;;;;;5082876;27;88594;-57
2023/09/12 10:36:15;;;;;;;5.93;4.03;;;31.40;49.70;;;;;;5084149;27;87658;-57
2023/09/12 10:38:45;;;;;;;6.87;4.03;;;31.40;49.70;;;;;;5084125;27;89903;-57
2023/09/12 10:41:14;;;;;;;6.97;3.93;;;31.50;49.70;;;;;;5082546;27;89000;-57
2023/09/12 10:43:46;;;;;;;7.30;4.30;;;31.50;49.70;;;;;;5082469;27;87615;-57
2023/09/12 10:46:15;;;;;;;7.87;3.90;;;31.50;49.70;;;;;;5082979;27;88029;-57
2023/09/12 10:48:43;;;;;;;4.97;3.73;;;31.50;49.70;;;;;;5082700;27;89706;-57
2023/09/12 10:51:12;;;;;;;6.53;4.00;;;31.50;49.70;;;;;;5082572;27;89176;-57
2023/09/12 10:53:48;;;;;;;4.83;3.63;;;31.50;49.70;;;;;;5082884;27;88823;-57
2023/09/12 10:56:20;;;;;;;5.83;3.50;;;31.50;49.70;;;;;;5081547;27;87529;-57
2023/09/12 10:59:11;;;;;;;4.77;3.70;;;31.50;49.70;;;;;;5079962;27;89681;-57
2023/09/12 11:01:41;;;;;;;6.70;4.07;;;31.50;49.70;;;;;;5081771;27;89142;-57
2023/09/12 11:04:34;;;;;;;5.17;3.67;;;31.50;49.70;;;;;;5079733;27;88919;-57
2023/09/12 11:07:02;;;;;;;5.07;4.20;;;31.50;49.70;;;;;;5082782;27;87768;-57
2023/09/12 11:09:31;;;;;;;4.30;3.50;;;31.50;49.70;;;;;;5082054;27;89560;-57
2023/09/12 11:12:04;;;;;;;4.93;3.43;;;31.50;49.70;;;;;;5081342;27;90183;-57
2023/09/12 11:14:33;;;;;;;7.60;3.47;;;31.50;49.70;;;;;;5079757;27;89830;-57
2023/09/12 11:17:23;;;;;;;4.97;4.00;;;31.50;49.60;;;;;;5077245;27;88793;-58
2023/09/12 11:19:53;;;;;;;5.93;4.27;;;31.50;49.60;;;;;;5073700;27;89759;-57
2023/09/12 11:22:25;;;;;;;6.03;3.63;;;31.60;49.70;;;;;;5070495;27;89088;-57
2023/09/12 11:24:56;;;;;;;7.60;4.83;;;31.60;49.70;;;;;;5080044;27;89052;-57
2023/09/12 11:27:25;;;;;;;8.07;4.37;;;31.60;49.70;;;;;;5078902;27;87621;-57
2023/09/12 11:29:54;;;;;;;5.40;3.73;;;31.60;49.70;;;;;;5076519;27;89661;-58
2023/09/12 11:32:31;;;;;;;7.20;4.53;;;31.60;49.60;;;;;;5081969;27;89552;-56
2023/09/12 11:35:00;;;;;;;10.00;4.93;;;31.60;49.70;;;;;;5080776;27;88879;-56
2023/09/12 11:37:27;;;;;;;10.97;5.47;;;31.60;49.70;;;;;;5081587;27;87960;-56
2023/09/12 11:39:58;;;;;;;7.90;4.77;;;31.50;49.60;;;;;;5082175;27;89663;-56
2023/09/12 11:42:26;;;;;;;11.57;4.87;;;31.50;49.60;;;;;;5082512;27;89167;-56
2023/09/12 11:44:55;;;;;;;7.80;4.73;;;31.50;49.60;;;;;;5083159;27;88870;-56
2023/09/12 11:47:23;;;;;;;13.13;5.53;;;31.40;49.50;;;;;;5081538;27;88212;-59
2023/09/12 11:49:52;;;;;;;9.30;4.37;;;31.40;49.60;;;;;;5078779;27;89185;-57
2023/09/12 11:52:21;;;;;;;8.57;4.53;;;31.40;50.20;;;;;;5081542;27;88967;-55
2023/09/12 11:54:53;;;;;;;7.60;4.63;;;31.40;49.60;;;;;;5078059;27;88784;-57
2023/09/12 11:57:22;;;;;;;9.53;4.10;;;31.30;49.60;;;;;;5081034;27;87796;-56
2023/09/12 11:59:51;;;;;;;8.90;4.30;;;31.30;49.70;;;;;;5077361;27;89586;-56
2023/09/12 12:02:20;;;;;;;13.90;6.33;;;31.30;49.60;;;;;;5081157;27;90200;-56
2023/09/12 12:04:48;;;;;;;12.20;6.37;;;31.20;49.60;;;;;;5082064;27;89806;-56
2023/09/12 12:07:16;;;;;;;12.87;7.53;;;31.20;49.70;;;;;;5075424;27;87800;-57
2023/09/12 12:09:45;;;;;;;11.43;7.23;;;31.20;49.70;;;;;;5084923;27;89997;-56
2023/09/12 12:12:14;;;;;;;14.57;7.10;;;31.10;49.70;;;;;;5084062;27;89271;-56
2023/09/12 12:14:44;;;;;;;12.83;6.40;;;31.10;49.70;;;;;;5082434;27;88920;-56
2023/09/12 12:17:13;;;;;;;10.53;5.20;;;31.20;49.80;;;;;;5082132;27;87560;-56
2023/09/12 12:19:41;;;;;;;8.53;5.40;;;31.30;49.70;;;;;;5081295;27;89724;-57
2023/09/12 12:22:09;;;;;;;8.57;5.30;;;31.30;49.70;;;;;;5079092;27;89020;-57
2023/09/12 12:24:39;;;;;;;9.07;4.90;;;31.30;49.60;;;;;;5067694;27;88869;-57
2023/09/12 12:27:09;;;;;;;9.83;4.60;;;31.40;49.60;;;;;;5081147;27;87960;-57
2023/09/12 12:29:39;;;;;;;8.17;4.83;;;31.40;49.60;;;;;;5081168;27;89641;-56
2023/09/12 12:32:09;;;;;;;7.77;4.90;;;31.40;49.60;;;;;;5078773;27;88961;-56
2023/09/12 12:34:38;;;;;;;7.63;4.37;;;31.40;49.50;;;;;;5073276;27;87690;-56
2023/09/12 12:37:30;;;;;;;8.83;4.63;;;31.40;49.50;;;;;;5079301;27;87670;-56
2023/09/12 12:39:59;;;;;;;7.50;4.23;;;31.40;49.50;;;;;;5081804;27;89587;-57
2023/09/12 12:42:33;;;;;;;7.70;4.40;;;31.40;49.50;;;;;;5072680;27;91483;-55
2023/09/12 12:45:16;;;;;;;9.27;5.20;;;31.40;49.60;;;;;;5079763;27;88453;-55
2023/09/12 12:47:46;;;;;;;10.77;4.77;;;31.40;49.60;;;;;;5080899;27;87551;-56
2023/09/12 12:50:14;;;;;;;7.40;3.83;;;31.40;49.60;;;;;;5096268;27;89422;-55
2023/09/12 12:52:43;;;;;;;6.77;4.00;;;31.30;49.60;;;;;;5074899;27;90057;-55
2023/09/12 12:55:11;;;;;;;9.30;3.60;;;31.30;49.70;;;;;;5077777;27;89970;-56
2023/09/12 12:57:40;;;;;;;5.87;3.00;;;31.30;49.70;;;;;;5081719;27;87277;-55